Terminal Aerodrome Forecast
Issued by NWS Sterling, VA

Current Version | Previous Version | Text Only | Print | Product List | Glossary Off
Versions: 1 2 3 4 5 6 7 8 9 10 11 12 13 14 15 16 17 18 19 20 21 22 23 24 25 26 27

000
FTUS41 KLWX 281449 AAA
TAFIAD
TAF AMD
KIAD 281449Z 2815/2918 10008KT 2SM -SHRA BR OVC008
     FM281900 08008KT 2SM BR OVC008
     FM290600 06005KT 3SM -DZ BR OVC008
     FM291500 07005KT P6SM OVC010=

USA.gov is the U.S. government's official web portal to all federal, state and local government web resources and services.